Terminal Aerodrome Forecast
Issued by NWS Tampa Bay Area, FL

Home | Current Version | Previous Version | Text Only | Print | Product List | Glossary On
Versions: 1 2 3 4 5 6 7 8 9 10 11 12 13 14 15 16 17 18 19
000
FTUS42 KTBW 260500
TAFSRQ
TAF
KSRQ 260535Z 2606/2706 05006KT P6SM SCT250
     FM261700 VRB06KT P6SM SCT100 SCT250
     FM270200 04005KT P6SM SCT020 SCT050=

USA.gov is the U.S. government's official web portal to all federal, state and local government web resources and services.